sensor_id;sensor_type;location;lat;lon;timestamp;P1;durP1;ratioP1;P2;durP2;ratioP2
45296;SDS011;31040;51.622;10.420;2023-01-15T00:02:05;2.38;;;0.93;;
45296;SDS011;31040;51.622;10.420;2023-01-15T00:04:33;0.30;;;0.30;;
45296;SDS011;31040;51.622;10.420;2023-01-15T00:07:00;0.40;;;0.40;;
45296;SDS011;31040;51.622;10.420;2023-01-15T00:09:28;0.40;;;0.40;;
45296;SDS011;31040;51.622;10.420;2023-01-15T00:11:55;0.30;;;0.30;;
45296;SDS011;31040;51.622;10.420;2023-01-15T00:14:23;0.55;;;0.45;;
45296;SDS011;31040;51.622;10.420;2023-01-15T00:16:50;1.02;;;0.35;;
45296;SDS011;31040;51.622;10.420;2023-01-15T00:19:18;0.80;;;0.43;;
45296;SDS011;31040;51.622;10.420;2023-01-15T00:21:45;0.98;;;0.40;;
45296;SDS011;31040;51.622;10.420;2023-01-15T00:24:12;0.40;;;0.40;;
45296;SDS011;31040;51.622;10.420;2023-01-15T00:26:58;1.05;;;0.40;;
45296;SDS011;31040;51.622;10.420;2023-01-15T00:29:44;0.60;;;0.38;;
45296;SDS011;31040;51.622;10.420;2023-01-15T00:32:12;0.43;;;0.40;;
45296;SDS011;31040;51.622;10.420;2023-01-15T00:34:39;0.85;;;0.40;;
45296;SDS011;31040;51.622;10.420;2023-01-15T00:37:07;0.45;;;0.40;;
45296;SDS011;31040;51.622;10.420;2023-01-15T00:39:34;2.92;;;0.63;;
45296;SDS011;31040;51.622;10.420;2023-01-15T00:42:01;1.20;;;0.40;;
45296;SDS011;31040;51.622;10.420;2023-01-15T00:44:29;1.67;;;0.55;;
45296;SDS011;31040;51.622;10.420;2023-01-15T00:46:58;1.38;;;0.55;;
45296;SDS011;31040;51.622;10.420;2023-01-15T00:49:26;1.45;;;0.55;;
45296;SDS011;31040;51.622;10.420;2023-01-15T00:51:53;0.80;;;0.50;;
45296;SDS011;31040;51.622;10.420;2023-01-15T00:54:21;0.98;;;0.43;;
45296;SDS011;31040;51.622;10.420;2023-01-15T00:56:48;0.68;;;0.40;;
45296;SDS011;31040;51.622;10.420;2023-01-15T00:59:16;0.70;;;0.40;;
45296;SDS011;31040;51.622;10.420;2023-01-15T01:01:43;0.52;;;0.40;;
45296;SDS011;31040;51.622;10.420;2023-01-15T01:04:11;0.60;;;0.40;;
45296;SDS011;31040;51.622;10.420;2023-01-15T01:06:38;0.20;;;0.10;;
45296;SDS011;31040;51.622;10.420;2023-01-15T01:09:05;0.40;;;0.40;;
45296;SDS011;31040;51.622;10.420;2023-01-15T01:11:33;0.40;;;0.40;;
45296;SDS011;31040;51.622;10.420;2023-01-15T01:14:02;1.27;;;0.35;;
45296;SDS011;31040;51.622;10.420;2023-01-15T01:16:30;0.38;;;0.38;;
45296;SDS011;31040;51.622;10.420;2023-01-15T01:19:02;0.88;;;0.52;;
45296;SDS011;31040;51.622;10.420;2023-01-15T01:21:30;1.17;;;0.30;;
45296;SDS011;31040;51.622;10.420;2023-01-15T01:23:58;1.98;;;0.30;;
45296;SDS011;31040;51.622;10.420;2023-01-15T01:26:26;0.98;;;0.20;;
45296;SDS011;31040;51.622;10.420;2023-01-15T01:28:54;3.08;;;0.30;;
45296;SDS011;31040;51.622;10.420;2023-01-15T01:31:21;1.92;;;0.60;;
45296;SDS011;31040;51.622;10.420;2023-01-15T01:33:53;1.15;;;0.50;;
45296;SDS011;31040;51.622;10.420;2023-01-15T01:36:25;0.77;;;0.40;;
45296;SDS011;31040;51.622;10.420;2023-01-15T01:38:52;2.38;;;0.52;;
45296;SDS011;31040;51.622;10.420;2023-01-15T01:41:19;2.10;;;1.10;;
45296;SDS011;31040;51.622;10.420;2023-01-15T01:44:03;2.75;;;0.30;;
45296;SDS011;31040;51.622;10.420;2023-01-15T01:46:32;0.65;;;0.30;;
45296;SDS011;31040;51.622;10.420;2023-01-15T01:49:05;0.57;;;0.50;;
45296;SDS011;31040;51.622;10.420;2023-01-15T01:51:34;0.73;;;0.50;;
45296;SDS011;31040;51.622;10.420;2023-01-15T01:54:05;1.42;;;0.45;;
45296;SDS011;31040;51.622;10.420;2023-01-15T01:56:33;0.80;;;0.60;;
45296;SDS011;31040;51.622;10.420;2023-01-15T01:59:01;0.70;;;0.70;;
45296;SDS011;31040;51.622;10.420;2023-01-15T02:01:29;1.08;;;1.00;;
45296;SDS011;31040;51.622;10.420;2023-01-15T02:03:57;1.70;;;0.80;;
45296;SDS011;31040;51.622;10.420;2023-01-15T02:06:25;1.40;;;0.90;;
45296;SDS011;31040;51.622;10.420;2023-01-15T02:08:53;1.40;;;0.77;;
45296;SDS011;31040;51.622;10.420;2023-01-15T02:11:21;1.42;;;0.80;;
45296;SDS011;31040;51.622;10.420;2023-01-15T02:13:54;0.93;;;0.90;;
45296;SDS011;31040;51.622;10.420;2023-01-15T02:19:39;0.75;;;0.75;;
45296;SDS011;31040;51.622;10.420;2023-01-15T02:21:55;1.50;;;0.93;;
45296;SDS011;31040;51.622;10.420;2023-01-15T02:27:15;1.38;;;0.60;;
45296;SDS011;31040;51.622;10.420;2023-01-15T02:32:19;1.27;;;0.70;;
45296;SDS011;31040;51.622;10.420;2023-01-15T02:34:51;1.40;;;0.60;;
45296;SDS011;31040;51.622;10.420;2023-01-15T02:37:26;0.65;;;0.50;;
45296;SDS011;31040;51.622;10.420;2023-01-15T02:39:54;1.17;;;0.63;;
45296;SDS011;31040;51.622;10.420;2023-01-15T02:42:22;3.70;;;0.75;;
45296;SDS011;31040;51.622;10.420;2023-01-15T02:44:52;1.35;;;0.50;;
45296;SDS011;31040;51.622;10.420;2023-01-15T02:47:22;0.38;;;0.30;;
45296;SDS011;31040;51.622;10.420;2023-01-15T02:49:51;0.80;;;0.35;;
45296;SDS011;31040;51.622;10.420;2023-01-15T02:52:34;0.47;;;0.28;;
45296;SDS011;31040;51.622;10.420;2023-01-15T02:55:05;1.27;;;0.30;;
45296;SDS011;31040;51.622;10.420;2023-01-15T02:57:33;0.38;;;0.20;;
45296;SDS011;31040;51.622;10.420;2023-01-15T03:00:04;0.45;;;0.20;;
45296;SDS011;31040;51.622;10.420;2023-01-15T03:02:45;0.20;;;0.10;;
45296;SDS011;31040;51.622;10.420;2023-01-15T03:05:16;1.08;;;0.10;;
45296;SDS011;31040;51.622;10.420;2023-01-15T03:07:51;0.00;;;0.00;;
45296;SDS011;31040;51.622;10.420;2023-01-15T03:10:19;0.10;;;0.00;;
45296;SDS011;31040;51.622;10.420;2023-01-15T03:13:06;0.10;;;0.08;;
45296;SDS011;31040;51.622;10.420;2023-01-15T03:15:38;0.03;;;0.00;;
45296;SDS011;31040;51.622;10.420;2023-01-15T03:18:26;0.43;;;0.00;;
45296;SDS011;31040;51.622;10.420;2023-01-15T03:20:56;0.10;;;0.10;;
45296;SDS011;31040;51.622;10.420;2023-01-15T03:23:24;1.00;;;0.10;;
45296;SDS011;31040;51.622;10.420;2023-01-15T03:25:52;0.43;;;0.00;;
45296;SDS011;31040;51.622;10.420;2023-01-15T03:28:21;0.10;;;0.10;;
45296;SDS011;31040;51.622;10.420;2023-01-15T03:30:50;0.10;;;0.10;;
45296;SDS011;31040;51.622;10.420;2023-01-15T03:33:18;0.10;;;0.10;;
45296;SDS011;31040;51.622;10.420;2023-01-15T03:35:50;0.43;;;0.28;;
45296;SDS011;31040;51.622;10.420;2023-01-15T03:38:19;0.10;;;0.10;;
45296;SDS011;31040;51.622;10.420;2023-01-15T03:43:18;0.45;;;0.10;;
45296;SDS011;31040;51.622;10.420;2023-01-15T03:46:06;0.15;;;0.10;;
45296;SDS011;31040;51.622;10.420;2023-01-15T03:48:42;0.15;;;0.10;;
45296;SDS011;31040;51.622;10.420;2023-01-15T03:51:12;0.10;;;0.10;;
45296;SDS011;31040;51.622;10.420;2023-01-15T03:53:51;0.25;;;0.10;;
45296;SDS011;31040;51.622;10.420;2023-01-15T03:56:22;0.80;;;0.00;;
45296;SDS011;31040;51.622;10.420;2023-01-15T03:59:04;0.10;;;0.10;;
45296;SDS011;31040;51.622;10.420;2023-01-15T04:01:35;0.20;;;0.08;;
45296;SDS011;31040;51.622;10.420;2023-01-15T04:04:04;0.20;;;0.13;;
45296;SDS011;31040;51.622;10.420;2023-01-15T04:06:33;0.20;;;0.10;;
45296;SDS011;31040;51.622;10.420;2023-01-15T04:09:02;0.55;;;0.20;;
45296;SDS011;31040;51.622;10.420;2023-01-15T04:11:30;1.95;;;0.60;;
45296;SDS011;31040;51.622;10.420;2023-01-15T04:13:58;2.47;;;0.70;;
45296;SDS011;31040;51.622;10.420;2023-01-15T04:16:26;1.15;;;0.30;;
45296;SDS011;31040;51.622;10.420;2023-01-15T04:18:54;1.10;;;0.20;;
45296;SDS011;31040;51.622;10.420;2023-01-15T04:21:21;0.13;;;0.13;;
45296;SDS011;31040;51.622;10.420;2023-01-15T04:23:49;0.47;;;0.20;;
45296;SDS011;31040;51.622;10.420;2023-01-15T04:26:16;0.60;;;0.30;;
45296;SDS011;31040;51.622;10.420;2023-01-15T04:28:44;3.83;;;0.63;;
45296;SDS011;31040;51.622;10.420;2023-01-15T04:31:12;0.28;;;0.25;;
45296;SDS011;31040;51.622;10.420;2023-01-15T04:33:39;0.95;;;0.30;;
45296;SDS011;31040;51.622;10.420;2023-01-15T04:36:07;0.17;;;0.17;;
45296;SDS011;31040;51.622;10.420;2023-01-15T04:38:35;0.35;;;0.30;;
45296;SDS011;31040;51.622;10.420;2023-01-15T04:41:03;0.90;;;0.30;;
45296;SDS011;31040;51.622;10.420;2023-01-15T04:43:50;2.95;;;0.50;;
45296;SDS011;31040;51.622;10.420;2023-01-15T04:46:35;0.82;;;0.30;;
45296;SDS011;31040;51.622;10.420;2023-01-15T04:49:07;0.20;;;0.20;;
45296;SDS011;31040;51.622;10.420;2023-01-15T04:51:35;0.77;;;0.30;;
45296;SDS011;31040;51.622;10.420;2023-01-15T04:54:05;1.65;;;0.30;;
45296;SDS011;31040;51.622;10.420;2023-01-15T04:56:36;0.75;;;0.20;;
45296;SDS011;31040;51.622;10.420;2023-01-15T04:59:04;1.17;;;0.32;;
45296;SDS011;31040;51.622;10.420;2023-01-15T05:01:31;1.10;;;0.25;;
45296;SDS011;31040;51.622;10.420;2023-01-15T05:03:59;0.85;;;0.40;;
45296;SDS011;31040;51.622;10.420;2023-01-15T05:06:27;1.00;;;0.32;;
45296;SDS011;31040;51.622;10.420;2023-01-15T05:08:57;0.25;;;0.20;;
45296;SDS011;31040;51.622;10.420;2023-01-15T05:11:24;0.52;;;0.20;;
45296;SDS011;31040;51.622;10.420;2023-01-15T05:13:52;0.20;;;0.20;;
45296;SDS011;31040;51.622;10.420;2023-01-15T05:16:20;0.52;;;0.13;;
45296;SDS011;31040;51.622;10.420;2023-01-15T05:18:50;0.32;;;0.25;;
45296;SDS011;31040;51.622;10.420;2023-01-15T05:21:22;1.48;;;0.30;;
45296;SDS011;31040;51.622;10.420;2023-01-15T05:23:50;0.30;;;0.30;;
45296;SDS011;31040;51.622;10.420;2023-01-15T05:26:18;0.20;;;0.20;;
45296;SDS011;31040;51.622;10.420;2023-01-15T05:28:46;1.73;;;0.47;;
45296;SDS011;31040;51.622;10.420;2023-01-15T05:31:15;2.28;;;0.60;;
45296;SDS011;31040;51.622;10.420;2023-01-15T05:33:43;3.25;;;1.08;;
45296;SDS011;31040;51.622;10.420;2023-01-15T05:36:11;1.27;;;0.82;;
45296;SDS011;31040;51.622;10.420;2023-01-15T05:38:39;0.50;;;0.38;;
45296;SDS011;31040;51.622;10.420;2023-01-15T05:41:08;0.30;;;0.30;;
45296;SDS011;31040;51.622;10.420;2023-01-15T05:43:54;0.30;;;0.30;;
45296;SDS011;31040;51.622;10.420;2023-01-15T05:46:22;0.38;;;0.20;;
45296;SDS011;31040;51.622;10.420;2023-01-15T05:48:49;0.50;;;0.50;;
45296;SDS011;31040;51.622;10.420;2023-01-15T05:51:17;0.50;;;0.50;;
45296;SDS011;31040;51.622;10.420;2023-01-15T05:53:44;0.40;;;0.40;;
45296;SDS011;31040;51.622;10.420;2023-01-15T05:56:11;1.52;;;0.38;;
45296;SDS011;31040;51.622;10.420;2023-01-15T05:58:39;0.30;;;0.17;;
45296;SDS011;31040;51.622;10.420;2023-01-15T06:01:07;1.10;;;0.20;;
45296;SDS011;31040;51.622;10.420;2023-01-15T06:03:34;1.08;;;0.50;;
45296;SDS011;31040;51.622;10.420;2023-01-15T06:06:02;0.55;;;0.30;;
45296;SDS011;31040;51.622;10.420;2023-01-15T06:08:30;1.25;;;0.30;;
45296;SDS011;31040;51.622;10.420;2023-01-15T06:10:57;0.30;;;0.20;;
45296;SDS011;31040;51.622;10.420;2023-01-15T06:13:24;0.55;;;0.22;;
45296;SDS011;31040;51.622;10.420;2023-01-15T06:15:52;1.08;;;0.50;;
45296;SDS011;31040;51.622;10.420;2023-01-15T06:18:19;0.25;;;0.22;;
45296;SDS011;31040;51.622;10.420;2023-01-15T06:20:49;0.20;;;0.20;;
45296;SDS011;31040;51.622;10.420;2023-01-15T06:23:16;0.98;;;0.30;;
45296;SDS011;31040;51.622;10.420;2023-01-15T06:25:44;0.20;;;0.20;;
45296;SDS011;31040;51.622;10.420;2023-01-15T06:28:12;2.10;;;0.40;;
45296;SDS011;31040;51.622;10.420;2023-01-15T06:30:39;0.73;;;0.22;;
45296;SDS011;31040;51.622;10.420;2023-01-15T06:33:07;0.30;;;0.30;;
45296;SDS011;31040;51.622;10.420;2023-01-15T06:35:34;0.20;;;0.20;;
45296;SDS011;31040;51.622;10.420;2023-01-15T06:38:01;0.20;;;0.20;;
45296;SDS011;31040;51.622;10.420;2023-01-15T06:40:29;0.70;;;0.50;;
45296;SDS011;31040;51.622;10.420;2023-01-15T06:42:57;1.65;;;0.93;;
45296;SDS011;31040;51.622;10.420;2023-01-15T06:45:43;0.75;;;0.40;;
45296;SDS011;31040;51.622;10.420;2023-01-15T06:48:29;3.38;;;1.45;;
45296;SDS011;31040;51.622;10.420;2023-01-15T06:50:56;2.28;;;1.83;;
45296;SDS011;31040;51.622;10.420;2023-01-15T06:53:24;3.08;;;0.90;;
45296;SDS011;31040;51.622;10.420;2023-01-15T06:55:52;0.80;;;0.30;;
45296;SDS011;31040;51.622;10.420;2023-01-15T06:58:19;0.63;;;0.30;;
45296;SDS011;31040;51.622;10.420;2023-01-15T07:00:49;2.25;;;0.50;;
45296;SDS011;31040;51.622;10.420;2023-01-15T07:03:21;1.23;;;0.80;;
45296;SDS011;31040;51.622;10.420;2023-01-15T07:05:49;2.15;;;1.52;;
45296;SDS011;31040;51.622;10.420;2023-01-15T07:08:17;1.85;;;1.15;;
45296;SDS011;31040;51.622;10.420;2023-01-15T07:10:44;1.20;;;1.10;;
45296;SDS011;31040;51.622;10.420;2023-01-15T07:13:15;1.02;;;0.30;;
45296;SDS011;31040;51.622;10.420;2023-01-15T07:15:42;0.82;;;0.60;;
45296;SDS011;31040;51.622;10.420;2023-01-15T07:18:09;1.20;;;0.60;;
45296;SDS011;31040;51.622;10.420;2023-01-15T07:20:39;3.92;;;0.40;;
45296;SDS011;31040;51.622;10.420;2023-01-15T07:23:10;0.38;;;0.30;;
45296;SDS011;31040;51.622;10.420;2023-01-15T07:25:37;2.42;;;1.17;;
45296;SDS011;31040;51.622;10.420;2023-01-15T07:28:04;1.40;;;0.30;;
45296;SDS011;31040;51.622;10.420;2023-01-15T07:30:32;1.35;;;0.28;;
45296;SDS011;31040;51.622;10.420;2023-01-15T07:32:59;0.30;;;0.20;;
45296;SDS011;31040;51.622;10.420;2023-01-15T07:35:29;0.38;;;0.32;;
45296;SDS011;31040;51.622;10.420;2023-01-15T07:37:57;2.47;;;0.40;;
45296;SDS011;31040;51.622;10.420;2023-01-15T07:40:24;0.28;;;0.28;;
45296;SDS011;31040;51.622;10.420;2023-01-15T07:42:52;1.08;;;0.40;;
45296;SDS011;31040;51.622;10.420;2023-01-15T07:45:38;0.52;;;0.38;;
45296;SDS011;31040;51.622;10.420;2023-01-15T07:48:24;1.23;;;0.40;;
45296;SDS011;31040;51.622;10.420;2023-01-15T07:51:10;0.77;;;0.40;;
45296;SDS011;31040;51.622;10.420;2023-01-15T07:53:38;1.48;;;0.80;;
45296;SDS011;31040;51.622;10.420;2023-01-15T07:56:05;3.72;;;1.77;;
45296;SDS011;31040;51.622;10.420;2023-01-15T07:58:33;3.10;;;1.70;;
45296;SDS011;31040;51.622;10.420;2023-01-15T08:01:01;2.00;;;1.13;;
45296;SDS011;31040;51.622;10.420;2023-01-15T08:03:28;2.70;;;1.23;;
45296;SDS011;31040;51.622;10.420;2023-01-15T08:05:55;1.95;;;0.57;;
45296;SDS011;31040;51.622;10.420;2023-01-15T08:08:23;1.70;;;0.93;;
45296;SDS011;31040;51.622;10.420;2023-01-15T08:10:50;0.88;;;0.70;;
45296;SDS011;31040;51.622;10.420;2023-01-15T08:13:36;1.27;;;0.80;;
45296;SDS011;31040;51.622;10.420;2023-01-15T08:16:22;0.93;;;0.82;;
45296;SDS011;31040;51.622;10.420;2023-01-15T08:18:49;1.48;;;0.80;;
45296;SDS011;31040;51.622;10.420;2023-01-15T08:21:17;1.83;;;0.52;;
45296;SDS011;31040;51.622;10.420;2023-01-15T08:23:44;1.23;;;0.20;;
45296;SDS011;31040;51.622;10.420;2023-01-15T08:26:12;0.40;;;0.40;;
45296;SDS011;31040;51.622;10.420;2023-01-15T08:28:40;3.63;;;0.60;;
45296;SDS011;31040;51.622;10.420;2023-01-15T08:31:07;1.75;;;0.60;;
45296;SDS011;31040;51.622;10.420;2023-01-15T08:33:37;1.90;;;0.73;;
45296;SDS011;31040;51.622;10.420;2023-01-15T08:36:04;0.40;;;0.40;;
45296;SDS011;31040;51.622;10.420;2023-01-15T08:38:32;1.13;;;0.65;;
45296;SDS011;31040;51.622;10.420;2023-01-15T08:40:59;1.90;;;0.95;;
45296;SDS011;31040;51.622;10.420;2023-01-15T08:43:30;1.10;;;0.47;;
45296;SDS011;31040;51.622;10.420;2023-01-15T08:46:02;1.13;;;0.50;;
45296;SDS011;31040;51.622;10.420;2023-01-15T08:48:30;0.73;;;0.50;;
45296;SDS011;31040;51.622;10.420;2023-01-15T08:50:57;1.83;;;1.35;;
45296;SDS011;31040;51.622;10.420;2023-01-15T08:53:25;3.88;;;1.05;;
45296;SDS011;31040;51.622;10.420;2023-01-15T08:55:55;3.60;;;1.23;;
45296;SDS011;31040;51.622;10.420;2023-01-15T08:58:22;2.33;;;0.68;;
45296;SDS011;31040;51.622;10.420;2023-01-15T09:00:49;2.80;;;1.30;;
45296;SDS011;31040;51.622;10.420;2023-01-15T09:03:17;3.17;;;2.08;;
45296;SDS011;31040;51.622;10.420;2023-01-15T09:05:44;3.83;;;3.22;;
45296;SDS011;31040;51.622;10.420;2023-01-15T09:08:12;9.40;;;5.47;;
45296;SDS011;31040;51.622;10.420;2023-01-15T09:10:39;7.82;;;4.05;;
45296;SDS011;31040;51.622;10.420;2023-01-15T09:13:07;8.43;;;5.78;;
45296;SDS011;31040;51.622;10.420;2023-01-15T09:15:34;4.18;;;3.05;;
45296;SDS011;31040;51.622;10.420;2023-01-15T09:18:01;1.20;;;1.02;;
45296;SDS011;31040;51.622;10.420;2023-01-15T09:20:29;3.70;;;3.33;;
45296;SDS011;31040;51.622;10.420;2023-01-15T09:22:59;5.18;;;3.95;;
45296;SDS011;31040;51.622;10.420;2023-01-15T09:25:26;6.03;;;2.30;;
45296;SDS011;31040;51.622;10.420;2023-01-15T09:27:54;3.92;;;2.00;;
45296;SDS011;31040;51.622;10.420;2023-01-15T09:30:22;4.25;;;2.53;;
45296;SDS011;31040;51.622;10.420;2023-01-15T09:32:49;1.88;;;0.60;;
45296;SDS011;31040;51.622;10.420;2023-01-15T09:35:17;2.22;;;1.92;;
45296;SDS011;31040;51.622;10.420;2023-01-15T09:37:48;1.30;;;0.90;;
45296;SDS011;31040;51.622;10.420;2023-01-15T09:43:02;1.67;;;0.60;;
45296;SDS011;31040;51.622;10.420;2023-01-15T09:45:39;2.47;;;0.55;;
45296;SDS011;31040;51.622;10.420;2023-01-15T09:53:57;1.92;;;0.85;;
45296;SDS011;31040;51.622;10.420;2023-01-15T09:56:27;2.67;;;0.93;;
45296;SDS011;31040;51.622;10.420;2023-01-15T09:58:55;2.67;;;1.40;;
45296;SDS011;31040;51.622;10.420;2023-01-15T10:01:33;1.20;;;0.85;;
45296;SDS011;31040;51.622;10.420;2023-01-15T10:04:03;2.05;;;0.98;;
45296;SDS011;31040;51.622;10.420;2023-01-15T10:06:32;2.55;;;1.50;;
45296;SDS011;31040;51.622;10.420;2023-01-15T10:09:13;3.13;;;1.00;;
45296;SDS011;31040;51.622;10.420;2023-01-15T10:11:42;3.33;;;0.50;;
45296;SDS011;31040;51.622;10.420;2023-01-15T10:14:33;1.73;;;0.82;;
45296;SDS011;31040;51.622;10.420;2023-01-15T10:17:06;5.05;;;0.68;;
45296;SDS011;31040;51.622;10.420;2023-01-15T10:19:38;4.45;;;2.90;;
45296;SDS011;31040;51.622;10.420;2023-01-15T10:22:13;2.60;;;0.90;;
45296;SDS011;31040;51.622;10.420;2023-01-15T10:24:44;2.10;;;0.60;;
45296;SDS011;31040;51.622;10.420;2023-01-15T10:27:18;3.83;;;1.67;;
45296;SDS011;31040;51.622;10.420;2023-01-15T10:29:56;2.42;;;0.90;;
45296;SDS011;31040;51.622;10.420;2023-01-15T10:37:36;6.20;;;3.00;;
45296;SDS011;31040;51.622;10.420;2023-01-15T10:45:33;2.40;;;0.93;;
45296;SDS011;31040;51.622;10.420;2023-01-15T10:48:05;0.73;;;0.40;;
45296;SDS011;31040;51.622;10.420;2023-01-15T10:50:35;0.88;;;0.50;;
45296;SDS011;31040;51.622;10.420;2023-01-15T10:53:04;3.67;;;0.73;;
45296;SDS011;31040;51.622;10.420;2023-01-15T10:58:03;1.55;;;1.13;;
45296;SDS011;31040;51.622;10.420;2023-01-15T11:00:36;1.70;;;1.38;;
45296;SDS011;31040;51.622;10.420;2023-01-15T11:03:05;2.05;;;0.70;;
45296;SDS011;31040;51.622;10.420;2023-01-15T11:05:40;1.60;;;0.70;;
45296;SDS011;31040;51.622;10.420;2023-01-15T11:08:12;1.50;;;1.40;;
45296;SDS011;31040;51.622;10.420;2023-01-15T11:13:53;2.78;;;1.65;;
45296;SDS011;31040;51.622;10.420;2023-01-15T11:16:40;1.15;;;0.68;;
45296;SDS011;31040;51.622;10.420;2023-01-15T11:19:28;3.08;;;1.25;;
45296;SDS011;31040;51.622;10.420;2023-01-15T11:22:20;3.20;;;1.13;;
45296;SDS011;31040;51.622;10.420;2023-01-15T11:24:52;3.00;;;1.83;;
45296;SDS011;31040;51.622;10.420;2023-01-15T11:27:24;1.58;;;0.50;;
45296;SDS011;31040;51.622;10.420;2023-01-15T11:29:54;0.80;;;0.52;;
45296;SDS011;31040;51.622;10.420;2023-01-15T11:32:32;11.65;;;5.97;;
45296;SDS011;31040;51.622;10.420;2023-01-15T11:35:01;3.67;;;1.73;;
45296;SDS011;31040;51.622;10.420;2023-01-15T11:37:30;2.10;;;0.63;;
45296;SDS011;31040;51.622;10.420;2023-01-15T11:39:58;0.50;;;0.50;;
45296;SDS011;31040;51.622;10.420;2023-01-15T11:42:31;2.00;;;0.40;;
45296;SDS011;31040;51.622;10.420;2023-01-15T11:45:18;0.95;;;0.57;;
45296;SDS011;31040;51.622;10.420;2023-01-15T11:48:15;0.73;;;0.47;;
45296;SDS011;31040;51.622;10.420;2023-01-15T11:53:32;4.13;;;1.20;;
45296;SDS011;31040;51.622;10.420;2023-01-15T11:56:02;1.17;;;0.52;;
45296;SDS011;31040;51.622;10.420;2023-01-15T11:58:42;0.75;;;0.52;;
45296;SDS011;31040;51.622;10.420;2023-01-15T12:01:22;0.82;;;0.60;;
45296;SDS011;31040;51.622;10.420;2023-01-15T12:03:55;0.73;;;0.63;;
45296;SDS011;31040;51.622;10.420;2023-01-15T12:06:23;0.90;;;0.55;;
45296;SDS011;31040;51.622;10.420;2023-01-15T12:14:44;0.30;;;0.28;;
45296;SDS011;31040;51.622;10.420;2023-01-15T12:29:52;1.23;;;0.40;;
45296;SDS011;31040;51.622;10.420;2023-01-15T12:32:22;0.50;;;0.50;;
45296;SDS011;31040;51.622;10.420;2023-01-15T12:34:58;1.55;;;0.70;;
45296;SDS011;31040;51.622;10.420;2023-01-15T12:37:29;0.28;;;0.28;;
45296;SDS011;31040;51.622;10.420;2023-01-15T12:42:41;0.70;;;0.60;;
45296;SDS011;31040;51.622;10.420;2023-01-15T12:45:33;1.00;;;0.70;;
45296;SDS011;31040;51.622;10.420;2023-01-15T12:48:04;0.73;;;0.70;;
45296;SDS011;31040;51.622;10.420;2023-01-15T12:50:41;2.00;;;0.80;;
45296;SDS011;31040;51.622;10.420;2023-01-15T13:01:12;0.60;;;0.60;;
45296;SDS011;31040;51.622;10.420;2023-01-15T13:03:50;0.70;;;0.40;;
45296;SDS011;31040;51.622;10.420;2023-01-15T13:06:19;0.65;;;0.50;;
45296;SDS011;31040;51.622;10.420;2023-01-15T13:11:19;1.40;;;0.60;;
45296;SDS011;31040;51.622;10.420;2023-01-15T13:13:46;0.47;;;0.30;;
45296;SDS011;31040;51.622;10.420;2023-01-15T13:16:27;3.85;;;0.60;;
45296;SDS011;31040;51.622;10.420;2023-01-15T13:21:42;3.60;;;1.05;;
45296;SDS011;31040;51.622;10.420;2023-01-15T13:32:32;2.83;;;0.30;;
45296;SDS011;31040;51.622;10.420;2023-01-15T13:35:05;0.63;;;0.60;;
45296;SDS011;31040;51.622;10.420;2023-01-15T13:40:08;1.60;;;0.50;;
45296;SDS011;31040;51.622;10.420;2023-01-15T13:42:38;1.08;;;0.60;;
45296;SDS011;31040;51.622;10.420;2023-01-15T13:45:52;3.15;;;1.50;;
45296;SDS011;31040;51.622;10.420;2023-01-15T13:47:58;2.28;;;0.98;;
45296;SDS011;31040;51.622;10.420;2023-01-15T13:50:29;1.23;;;0.45;;
45296;SDS011;31040;51.622;10.420;2023-01-15T13:57:55;2.47;;;1.27;;
45296;SDS011;31040;51.622;10.420;2023-01-15T14:00:32;2.70;;;1.02;;
45296;SDS011;31040;51.622;10.420;2023-01-15T14:03:02;2.75;;;0.73;;
45296;SDS011;31040;51.622;10.420;2023-01-15T14:05:55;1.48;;;0.70;;
45296;SDS011;31040;51.622;10.420;2023-01-15T14:08:44;4.07;;;0.53;;
45296;SDS011;31040;51.622;10.420;2023-01-15T14:14:32;1.85;;;0.70;;
45296;SDS011;31040;51.622;10.420;2023-01-15T14:27:35;2.78;;;0.82;;
45296;SDS011;31040;51.622;10.420;2023-01-15T14:35:46;2.40;;;0.80;;
45296;SDS011;31040;51.622;10.420;2023-01-15T14:38:17;2.80;;;0.90;;
45296;SDS011;31040;51.622;10.420;2023-01-15T14:41:04;0.98;;;0.60;;
45296;SDS011;31040;51.622;10.420;2023-01-15T14:43:34;2.70;;;0.60;;
45296;SDS011;31040;51.622;10.420;2023-01-15T14:46:13;2.47;;;0.90;;
45296;SDS011;31040;51.622;10.420;2023-01-15T14:48:41;5.95;;;1.00;;
45296;SDS011;31040;51.622;10.420;2023-01-15T14:51:09;3.35;;;0.75;;
45296;SDS011;31040;51.622;10.420;2023-01-15T14:53:39;4.47;;;1.05;;
45296;SDS011;31040;51.622;10.420;2023-01-15T15:06:52;5.70;;;1.88;;
45296;SDS011;31040;51.622;10.420;2023-01-15T15:09:24;2.25;;;0.90;;
45296;SDS011;31040;51.622;10.420;2023-01-15T15:11:53;2.25;;;1.05;;
45296;SDS011;31040;51.622;10.420;2023-01-15T15:14:39;2.53;;;0.93;;
45296;SDS011;31040;51.622;10.420;2023-01-15T15:17:12;4.13;;;1.15;;
45296;SDS011;31040;51.622;10.420;2023-01-15T15:19:44;3.70;;;0.90;;
45296;SDS011;31040;51.622;10.420;2023-01-15T15:22:15;2.97;;;1.00;;
45296;SDS011;31040;51.622;10.420;2023-01-15T15:24:47;2.60;;;0.85;;
45296;SDS011;31040;51.622;10.420;2023-01-15T15:27:20;2.05;;;1.08;;
45296;SDS011;31040;51.622;10.420;2023-01-15T15:29:47;1.95;;;0.80;;
45296;SDS011;31040;51.622;10.420;2023-01-15T15:32:19;3.92;;;1.33;;
45296;SDS011;31040;51.622;10.420;2023-01-15T15:34:48;1.48;;;0.90;;
45296;SDS011;31040;51.622;10.420;2023-01-15T15:37:17;3.60;;;1.17;;
45296;SDS011;31040;51.622;10.420;2023-01-15T15:39:56;1.10;;;0.60;;
45296;SDS011;31040;51.622;10.420;2023-01-15T15:42:37;1.40;;;0.63;;
45296;SDS011;31040;51.622;10.420;2023-01-15T15:45:26;1.88;;;0.68;;
45296;SDS011;31040;51.622;10.420;2023-01-15T15:48:19;1.48;;;0.60;;
45296;SDS011;31040;51.622;10.420;2023-01-15T15:54:02;5.13;;;0.98;;
45296;SDS011;31040;51.622;10.420;2023-01-15T15:56:32;1.40;;;0.70;;
45296;SDS011;31040;51.622;10.420;2023-01-15T15:59:01;5.38;;;0.90;;
45296;SDS011;31040;51.622;10.420;2023-01-15T16:01:39;2.50;;;0.88;;
45296;SDS011;31040;51.622;10.420;2023-01-15T16:04:07;2.10;;;0.77;;
45296;SDS011;31040;51.622;10.420;2023-01-15T16:06:41;2.17;;;0.73;;
45296;SDS011;31040;51.622;10.420;2023-01-15T16:09:08;2.25;;;0.95;;
45296;SDS011;31040;51.622;10.420;2023-01-15T16:11:36;1.65;;;0.98;;
45296;SDS011;31040;51.622;10.420;2023-01-15T16:14:05;3.47;;;0.80;;
45296;SDS011;31040;51.622;10.420;2023-01-15T16:16:34;4.07;;;2.15;;
45296;SDS011;31040;51.622;10.420;2023-01-15T16:19:18;2.75;;;1.80;;
45296;SDS011;31040;51.622;10.420;2023-01-15T16:21:47;4.22;;;1.42;;
45296;SDS011;31040;51.622;10.420;2023-01-15T16:24:23;2.78;;;0.90;;
45296;SDS011;31040;51.622;10.420;2023-01-15T16:27:03;4.18;;;1.30;;
45296;SDS011;31040;51.622;10.420;2023-01-15T16:29:33;3.53;;;1.33;;
45296;SDS011;31040;51.622;10.420;2023-01-15T16:32:08;4.50;;;1.00;;
45296;SDS011;31040;51.622;10.420;2023-01-15T16:34:36;2.97;;;0.70;;
45296;SDS011;31040;51.622;10.420;2023-01-15T16:37:10;0.80;;;0.70;;
45296;SDS011;31040;51.622;10.420;2023-01-15T16:39:44;4.72;;;1.92;;
45296;SDS011;31040;51.622;10.420;2023-01-15T16:42:23;3.22;;;1.42;;
45296;SDS011;31040;51.622;10.420;2023-01-15T16:44:55;1.65;;;0.80;;
45296;SDS011;31040;51.622;10.420;2023-01-15T16:47:25;1.88;;;0.90;;
45296;SDS011;31040;51.622;10.420;2023-01-15T16:49:53;2.50;;;0.93;;
45296;SDS011;31040;51.622;10.420;2023-01-15T16:52:48;2.78;;;0.50;;
45296;SDS011;31040;51.622;10.420;2023-01-15T17:00:35;2.10;;;0.77;;
45296;SDS011;31040;51.622;10.420;2023-01-15T17:03:02;2.78;;;1.10;;
45296;SDS011;31040;51.622;10.420;2023-01-15T17:05:30;2.72;;;0.80;;